createdAt,value
2023-04-15T16:30:10.726Z,8.00
2023-04-15T16:32:19.450Z,8.00
2023-04-15T16:34:29.275Z,8.10
2023-04-15T16:36:40.694Z,7.90
2023-04-15T16:38:50.894Z,8.00
2023-04-15T16:41:01.302Z,8.30
2023-04-15T16:43:11.461Z,8.30
2023-04-15T16:45:20.423Z,8.50
2023-04-15T16:47:28.960Z,8.30
2023-04-15T16:49:37.770Z,9.10
2023-04-15T16:51:46.608Z,9.50
2023-04-15T16:53:56.725Z,9.50
2023-04-15T16:56:05.157Z,9.20
2023-04-15T16:58:13.893Z,9.80
2023-04-15T17:00:23.141Z,10.10
2023-04-15T17:02:32.228Z,10.40
2023-04-15T17:04:41.924Z,9.90
2023-04-15T17:06:50.452Z,9.20
2023-04-15T17:09:01.258Z,9.20
2023-04-15T17:11:10.076Z,8.80
2023-04-15T17:13:18.901Z,8.80
2023-04-15T17:15:29.175Z,8.50
2023-04-15T17:17:37.985Z,7.70
2023-04-15T17:19:46.748Z,7.60
2023-04-15T17:21:55.621Z,7.50
2023-04-15T17:24:07.247Z,7.40
2023-04-15T17:26:15.897Z,7.20
2023-04-15T17:28:24.787Z,7.00
2023-04-15T17:30:34.656Z,7.00
2023-04-15T17:32:43.145Z,6.70
2023-04-15T17:34:51.794Z,6.50
2023-04-15T17:37:00.142Z,6.30
2023-04-15T17:39:10.846Z,6.10
2023-04-15T17:41:19.662Z,6.10
2023-04-15T17:43:28.595Z,5.90
2023-04-15T17:45:37.245Z,5.80
2023-04-15T17:47:46.095Z,5.70
2023-04-15T17:49:54.687Z,5.70
2023-04-15T17:52:04.376Z,5.50
2023-04-15T17:54:14.778Z,5.60
2023-04-15T17:56:23.558Z,5.40
2023-04-15T17:58:33.277Z,5.40
2023-04-15T18:00:41.786Z,5.30
2023-04-15T18:02:50.586Z,5.20
2023-04-15T18:04:59.583Z,5.20
2023-04-15T18:07:08.696Z,5.10
2023-04-15T18:09:18.484Z,5.00
2023-04-15T18:11:26.801Z,5.00
2023-04-15T18:13:35.399Z,4.90
2023-04-15T18:15:46.790Z,4.80
2023-04-15T18:17:56.245Z,4.80
2023-04-15T18:20:05.415Z,4.80
2023-04-15T18:22:14.160Z,4.70
2023-04-15T18:24:24.284Z,4.60
2023-04-15T18:26:33.629Z,4.60
2023-04-15T18:28:42.272Z,4.60
2023-04-15T18:30:50.821Z,4.50
2023-04-15T18:32:59.721Z,4.40
2023-04-15T18:35:09.421Z,4.40
2023-04-15T18:37:18.382Z,4.40
2023-04-15T18:39:29.974Z,4.30
2023-04-15T18:41:38.880Z,4.30
2023-04-15T18:43:47.315Z,4.30
2023-04-15T18:45:55.903Z,4.20
2023-04-15T18:48:04.401Z,4.10
2023-04-15T18:50:13.257Z,4.10
2023-04-15T18:52:22.490Z,4.10
2023-04-15T18:54:33.693Z,4.00
2023-04-15T18:56:42.345Z,4.00
2023-04-15T18:59:10.213Z,4.00
2023-04-15T19:01:19.779Z,3.90
2023-04-15T19:03:29.379Z,3.90
2023-04-15T19:05:41.156Z,3.90
2023-04-15T19:07:52.073Z,3.90
2023-04-15T19:10:02.723Z,3.90
2023-04-15T19:12:11.334Z,3.80
2023-04-15T19:14:20.624Z,3.80
2023-04-15T19:16:29.610Z,3.90
2023-04-15T19:18:38.477Z,3.80
2023-04-15T19:20:47.305Z,3.80
2023-04-15T19:22:56.544Z,3.80
2023-04-15T19:25:07.765Z,3.90
2023-04-15T19:27:16.614Z,3.80
2023-04-15T19:29:26.060Z,3.80
2023-04-15T19:31:34.977Z,3.70
2023-04-15T19:33:44.270Z,3.70
2023-04-15T19:35:52.797Z,3.70
2023-04-15T19:38:01.356Z,3.70
2023-04-15T19:40:12.616Z,3.70
2023-04-15T19:42:21.696Z,3.70
2023-04-15T19:44:30.444Z,3.70
2023-04-15T19:46:39.341Z,3.70
2023-04-15T19:48:48.138Z,3.70
2023-04-15T19:50:58.091Z,3.60
2023-04-15T19:53:06.321Z,3.60
2023-04-15T19:55:16.957Z,3.60
2023-04-15T19:57:25.775Z,3.50
2023-04-15T19:59:34.462Z,3.50
2023-04-15T20:01:43.132Z,3.50
2023-04-15T20:03:54.443Z,3.50
2023-04-15T20:06:03.420Z,3.50
2023-04-15T20:08:12.653Z,3.50
2023-04-15T20:10:23.196Z,3.50
2023-04-15T20:12:50.221Z,3.50
2023-04-15T20:15:00.207Z,3.40
2023-04-15T20:17:09.015Z,3.40
2023-04-15T20:19:17.474Z,3.40
2023-04-15T20:21:25.917Z,3.40
2023-04-15T20:23:35.997Z,3.40
2023-04-15T20:25:46.588Z,3.30
2023-04-15T20:27:55.038Z,3.30
2023-04-15T20:30:05.234Z,3.30
2023-04-15T20:32:13.736Z,3.30
2023-04-15T20:34:22.630Z,3.20
2023-04-15T20:36:32.242Z,3.20
2023-04-15T20:38:40.975Z,3.20
2023-04-15T20:40:51.388Z,3.10
2023-04-15T20:42:59.810Z,3.10
2023-04-15T20:45:10.221Z,3.10
2023-04-15T20:47:19.336Z,3.10
2023-04-15T20:49:28.302Z,3.10
2023-04-15T20:51:38.222Z,3.00
2023-04-15T20:53:47.252Z,3.00
2023-04-15T20:55:57.576Z,3.00
2023-04-15T20:58:06.377Z,3.00
2023-04-15T21:00:15.236Z,3.00
2023-04-15T21:02:25.446Z,2.90
2023-04-15T21:04:33.921Z,2.90
2023-04-15T21:06:42.744Z,2.80
2023-04-15T21:08:52.445Z,2.80
2023-04-15T21:11:02.939Z,2.70
2023-04-15T21:13:13.403Z,2.80
2023-04-15T21:15:22.053Z,2.70
2023-04-15T21:17:30.800Z,2.70
2023-04-15T21:19:39.251Z,2.70
2023-04-15T21:21:47.939Z,2.60
2023-04-15T21:23:57.127Z,2.60
2023-04-15T21:26:07.140Z,2.60
2023-04-15T21:28:15.658Z,2.50
2023-04-15T21:30:25.709Z,2.50
2023-04-15T21:32:34.796Z,2.60
2023-04-15T21:34:43.560Z,2.50
2023-04-15T21:36:52.105Z,2.50
2023-04-15T21:39:01.396Z,2.50
2023-04-15T21:41:11.381Z,2.50
2023-04-15T21:43:22.087Z,2.40
2023-04-15T21:45:30.649Z,2.40
2023-04-15T21:47:56.783Z,2.30
2023-04-15T21:50:09.089Z,2.30
2023-04-15T21:52:17.817Z,2.30
2023-04-15T21:54:26.599Z,2.20
2023-04-15T21:56:38.026Z,2.20
2023-04-15T21:58:46.614Z,2.20
2023-04-15T22:01:00.551Z,2.20
2023-04-15T22:03:09.854Z,2.10
2023-04-15T22:05:19.076Z,2.20
2023-04-15T22:07:27.480Z,2.10
2023-04-15T22:09:35.896Z,2.00
2023-04-15T22:11:47.593Z,2.00
2023-04-15T22:13:57.169Z,2.00
2023-04-15T22:16:06.430Z,2.00
2023-04-15T22:18:15.861Z,1.90
2023-04-15T22:20:24.303Z,1.80
2023-04-15T22:22:44.120Z,1.90
2023-04-15T22:24:53.204Z,1.90
2023-04-15T22:27:03.626Z,1.80
2023-04-15T22:29:12.093Z,1.80
2023-04-15T22:31:21.126Z,1.80
2023-04-15T22:33:29.941Z,1.80
2023-04-15T22:35:39.140Z,1.70
2023-04-15T22:37:48.362Z,1.70
2023-04-15T22:39:56.833Z,1.70
2023-04-15T22:42:06.652Z,1.70
2023-04-15T22:44:15.348Z,1.60
2023-04-15T22:46:23.953Z,1.60
2023-04-15T22:48:32.329Z,1.50
2023-04-15T22:50:41.486Z,1.40
2023-04-15T22:52:50.203Z,1.40
2023-04-15T22:54:58.745Z,1.40
2023-04-15T22:57:09.102Z,1.40
2023-04-15T22:59:17.877Z,1.40
2023-04-15T23:01:26.569Z,1.20
2023-04-15T23:03:55.454Z,1.20
2023-04-15T23:06:03.832Z,1.20
2023-04-15T23:08:12.275Z,1.10
2023-04-15T23:10:21.030Z,1.10
2023-04-15T23:12:31.486Z,1.00
2023-04-15T23:14:40.050Z,0.80
2023-04-15T23:16:48.672Z,0.80
2023-04-15T23:18:57.802Z,0.70
2023-04-15T23:21:06.968Z,0.70
2023-04-15T23:23:15.811Z,0.60
2023-04-15T23:25:24.336Z,0.60
2023-04-15T23:27:34.409Z,0.50
2023-04-15T23:29:42.868Z,0.50
2023-04-15T23:31:51.400Z,0.50
2023-04-15T23:33:59.882Z,0.50
2023-04-15T23:36:08.807Z,0.50
2023-04-15T23:38:17.611Z,0.60
2023-04-15T23:40:26.109Z,0.60
2023-04-15T23:42:36.292Z,0.40
2023-04-15T23:44:45.223Z,0.40
2023-04-15T23:46:53.999Z,0.40
2023-04-15T23:49:03.250Z,0.20
2023-04-15T23:51:11.744Z,0.20
2023-04-15T23:53:20.266Z,0.20
2023-04-15T23:55:29.002Z,0.20
2023-04-15T23:57:40.985Z,0.20
2023-04-15T23:59:49.671Z,0.20
